createdAt,value
2017-06-02T00:18:44.458Z,17.92
2017-06-02T00:21:27.391Z,17.93
2017-06-02T00:24:20.774Z,17.81
2017-06-02T06:06:03.802Z,20.37
2017-06-02T06:21:12.676Z,20.78
2017-06-02T06:23:55.800Z,20.87
2017-06-02T06:26:49.443Z,20.84
2017-06-02T06:29:43.722Z,20.77
2017-06-02T06:32:38.215Z,20.69
2017-06-02T06:35:32.908Z,20.63
2017-06-02T06:41:17.110Z,20.63
2017-06-02T06:44:01.185Z,20.77
2017-06-02T06:46:55.339Z,20.86
2017-06-02T06:49:49.907Z,20.90
2017-06-02T06:52:44.714Z,20.92
2017-06-02T06:55:39.545Z,20.94
2017-06-02T06:58:34.518Z,20.96
2017-06-02T07:01:29.314Z,21.01
2017-06-02T07:07:19.165Z,21.19
2017-06-02T07:13:08.884Z,21.37
2017-06-02T07:16:03.735Z,21.45
2017-06-02T07:21:53.415Z,21.65
2017-06-02T07:24:48.232Z,21.77
2017-06-02T07:27:43.217Z,21.93
2017-06-02T07:30:38.080Z,22.08
2017-06-02T07:33:33.002Z,22.20
2017-06-02T07:36:27.980Z,22.29
2017-06-02T07:39:22.822Z,22.37
2017-06-02T07:42:17.803Z,22.44
2017-06-02T07:45:12.707Z,22.51
2017-06-02T07:48:07.639Z,22.62
2017-06-02T07:51:02.594Z,22.74
2017-06-02T07:53:57.529Z,22.86
2017-06-02T07:56:52.474Z,22.99
2017-06-02T07:59:47.531Z,23.12
2017-06-02T08:02:42.527Z,23.23
2017-06-02T08:05:37.647Z,23.37
2017-06-02T08:08:32.764Z,23.56
2017-06-02T08:11:28.060Z,23.77
2017-06-02T08:14:23.369Z,24.07
2017-06-02T08:20:14.104Z,24.66
2017-06-02T08:26:04.993Z,25.19
2017-06-02T08:29:00.518Z,25.44
2017-06-02T08:31:55.977Z,25.70
2017-06-02T08:34:51.425Z,25.99
2017-06-02T08:37:46.889Z,26.32
2017-06-02T08:40:42.517Z,26.63
2017-06-02T08:43:37.975Z,26.86
2017-06-02T08:46:33.449Z,27.13
2017-06-02T08:49:29.076Z,27.35
2017-06-02T08:52:24.739Z,27.64
2017-06-02T08:55:20.377Z,27.92
2017-06-02T08:58:15.974Z,28.24
2017-06-02T09:01:11.566Z,28.54
2017-06-02T09:04:07.335Z,28.81
2017-06-02T09:07:03.013Z,29.13
2017-06-02T09:09:58.529Z,29.46
2017-06-02T09:12:53.937Z,29.73
2017-06-02T09:15:49.096Z,30.01
2017-06-02T09:18:43.778Z,30.27
2017-06-02T09:21:38.334Z,30.54
2017-06-02T09:24:33.013Z,30.66
2017-06-02T09:27:27.564Z,30.91
2017-06-02T09:30:22.223Z,31.08
2017-06-02T09:33:16.986Z,31.14
2017-06-02T09:36:11.623Z,31.36
2017-06-02T09:39:06.912Z,31.72
2017-06-02T09:42:02.409Z,31.96
2017-06-02T09:44:57.821Z,32.12
2017-06-02T09:47:53.419Z,32.42
2017-06-02T09:50:49.139Z,32.79
2017-06-02T09:53:45.130Z,33.05
2017-06-02T09:56:41.534Z,33.39
2017-06-02T09:59:37.657Z,33.64
2017-06-02T10:02:33.857Z,33.82
2017-06-02T10:05:30.031Z,33.99
2017-06-02T10:08:26.167Z,34.38
2017-06-02T10:11:22.284Z,34.78
2017-06-02T10:14:18.455Z,35.23
2017-06-02T10:17:14.527Z,35.62
2017-06-02T10:20:10.658Z,35.90
2017-06-02T10:23:06.614Z,36.00
2017-06-02T10:26:02.440Z,36.22
2017-06-02T10:28:58.156Z,35.91
2017-06-02T10:31:53.213Z,35.41
2017-06-02T10:34:48.488Z,35.01
2017-06-02T10:37:43.714Z,34.60
2017-06-02T10:40:38.879Z,34.12
2017-06-02T10:43:33.921Z,33.57
2017-06-02T10:46:29.043Z,33.04
2017-06-02T10:49:24.025Z,32.50
2017-06-02T10:52:18.603Z,32.01
2017-06-02T10:55:13.203Z,31.48
2017-06-02T10:58:07.652Z,31.04
2017-06-02T11:01:02.398Z,30.64
2017-06-02T11:03:56.933Z,30.30
2017-06-02T11:06:51.456Z,29.97
2017-06-02T11:09:45.935Z,29.59
2017-06-02T11:12:40.266Z,29.26
2017-06-02T11:15:34.662Z,28.95
2017-06-02T11:18:29.156Z,28.63
2017-06-02T11:21:23.531Z,28.37
2017-06-02T11:24:17.882Z,28.13
2017-06-02T11:27:12.249Z,27.87
2017-06-02T11:30:06.285Z,27.66
2017-06-02T11:33:00.642Z,27.45
2017-06-02T11:35:55.063Z,27.26
2017-06-02T11:38:49.277Z,27.08
2017-06-02T11:44:37.781Z,26.79
2017-06-02T11:47:31.968Z,26.67
2017-06-02T11:50:26.229Z,26.58
2017-06-02T11:53:20.419Z,26.47
2017-06-02T11:56:14.727Z,26.35
2017-06-02T11:59:08.703Z,26.23
2017-06-02T12:02:02.508Z,26.11
2017-06-02T12:04:56.259Z,26.02
2017-06-02T12:07:49.812Z,25.95
2017-06-02T12:10:43.351Z,25.87
2017-06-02T12:13:37.136Z,25.78
2017-06-02T12:16:31.042Z,25.70
2017-06-02T12:19:25.182Z,25.63
2017-06-02T12:22:18.855Z,25.57
2017-06-02T12:25:12.787Z,25.51
2017-06-02T12:28:06.758Z,25.46
2017-06-02T12:31:00.919Z,25.40
2017-06-02T12:33:54.828Z,25.33
2017-06-02T12:36:48.738Z,25.25
2017-06-02T12:39:42.673Z,25.18
2017-06-02T12:42:36.631Z,25.14
2017-06-02T12:45:30.544Z,25.09
2017-06-02T12:48:24.542Z,25.04
2017-06-02T12:51:18.539Z,25.00
2017-06-02T12:54:12.550Z,24.94
2017-06-02T12:57:06.525Z,24.88
2017-06-02T13:00:00.542Z,24.84
2017-06-02T13:02:54.619Z,24.81
2017-06-02T13:05:48.748Z,24.78
2017-06-02T13:08:43.157Z,24.74
2017-06-02T13:11:37.469Z,24.70
2017-06-02T13:14:31.676Z,24.67
2017-06-02T13:17:25.839Z,24.62
2017-06-02T13:20:19.935Z,24.60
2017-06-02T13:23:14.024Z,24.58
2017-06-02T13:26:08.129Z,24.56
2017-06-02T13:31:56.551Z,24.56
2017-06-02T13:34:50.874Z,24.55
2017-06-02T13:37:45.108Z,24.54
2017-06-02T13:40:39.215Z,24.55
2017-06-02T13:43:33.316Z,24.56
2017-06-02T13:49:21.982Z,24.53
2017-06-02T13:52:16.649Z,24.52
2017-06-02T13:55:11.078Z,24.51
2017-06-02T13:58:05.503Z,24.51
2017-06-02T14:03:54.262Z,24.49
2017-06-02T14:09:42.840Z,24.49
2017-06-02T14:12:37.245Z,24.50
2017-06-02T14:15:31.630Z,24.51
2017-06-02T14:18:25.940Z,24.50
2017-06-02T14:21:20.368Z,24.49
2017-06-02T14:24:14.754Z,24.48
2017-06-02T14:27:09.166Z,24.48
2017-06-02T14:30:03.480Z,24.47
2017-06-02T14:32:57.794Z,24.46
2017-06-02T14:35:52.197Z,24.45
2017-06-02T14:38:46.525Z,24.45
2017-06-02T14:41:40.920Z,24.44
2017-06-02T14:44:35.366Z,24.43
2017-06-02T14:47:29.771Z,24.46
2017-06-02T14:50:24.041Z,24.47
2017-06-02T14:53:18.362Z,24.49
2017-06-02T14:56:12.697Z,24.51
2017-06-02T14:59:06.951Z,24.51
2017-06-02T15:02:01.418Z,24.50
2017-06-02T15:04:55.703Z,24.51
2017-06-02T15:07:50.138Z,24.52
2017-06-02T15:10:44.650Z,24.53
2017-06-02T15:13:39.096Z,24.53
2017-06-02T15:16:33.470Z,24.53
2017-06-02T15:19:27.833Z,24.54
2017-06-02T15:22:22.255Z,24.55
2017-06-02T15:25:16.558Z,24.55
2017-06-02T15:28:10.903Z,24.56
2017-06-02T15:31:05.398Z,24.57
2017-06-02T15:33:59.811Z,24.58
2017-06-02T15:36:54.295Z,24.58
2017-06-02T15:39:48.734Z,24.59
2017-06-02T15:42:43.048Z,24.60
2017-06-02T15:45:37.511Z,24.61
2017-06-02T15:48:32.020Z,24.62
2017-06-02T15:51:26.397Z,24.62
2017-06-02T15:54:20.957Z,24.62
2017-06-02T15:57:15.293Z,24.63
2017-06-02T16:00:09.652Z,24.63
2017-06-02T16:03:04.037Z,24.63
2017-06-02T16:05:58.531Z,24.63
2017-06-02T16:08:53.007Z,24.62
2017-06-02T16:11:47.366Z,24.62
2017-06-02T16:14:42.137Z,24.61
2017-06-02T16:17:36.981Z,24.61
2017-06-02T16:20:31.811Z,24.60
2017-06-02T16:23:26.414Z,24.59
2017-06-02T16:26:21.335Z,24.57
2017-06-02T16:29:16.062Z,24.56
2017-06-02T16:32:10.784Z,24.55
2017-06-02T16:35:05.675Z,24.54
2017-06-02T16:38:00.367Z,24.54
2017-06-02T16:40:55.070Z,24.52
2017-06-02T16:43:49.751Z,24.51
2017-06-02T16:46:44.363Z,24.49
2017-06-02T16:49:38.937Z,24.49
2017-06-02T16:52:33.617Z,24.49
2017-06-02T16:55:28.193Z,24.49
2017-06-02T16:58:22.718Z,24.48
2017-06-02T17:01:17.247Z,24.47
2017-06-02T17:04:12.101Z,24.47
2017-06-02T17:07:06.794Z,24.45
2017-06-02T17:10:01.387Z,24.44
2017-06-02T17:12:56.002Z,24.45
2017-06-02T17:18:45.310Z,24.31
2017-06-02T17:21:39.765Z,24.19
2017-06-02T17:24:34.324Z,24.07
2017-06-02T17:27:28.892Z,23.96
2017-06-02T17:30:23.493Z,23.87
2017-06-02T17:33:17.910Z,23.80
2017-06-02T17:36:12.493Z,23.75
2017-06-02T17:39:07.057Z,23.71
2017-06-02T17:42:01.509Z,23.66
2017-06-02T17:44:56.014Z,23.61
2017-06-02T17:47:50.820Z,23.57
2017-06-02T17:50:45.254Z,23.52
2017-06-02T17:53:39.639Z,23.47
2017-06-02T17:56:34.176Z,23.44
2017-06-02T17:59:28.855Z,23.41
2017-06-02T18:05:17.973Z,23.35
2017-06-02T18:08:12.408Z,23.31
2017-06-02T18:11:07.023Z,23.28
2017-06-02T18:14:01.526Z,23.25
2017-06-02T18:16:56.084Z,23.23
2017-06-02T18:19:50.617Z,23.20
2017-06-02T18:22:45.171Z,23.16
2017-06-02T18:25:39.523Z,23.12
2017-06-02T18:28:34.077Z,23.08
2017-06-02T18:31:28.531Z,23.05
2017-06-02T18:34:23.037Z,23.01
2017-06-02T18:37:17.504Z,22.95
2017-06-02T18:43:06.478Z,22.85
2017-06-02T18:46:01.034Z,22.81
2017-06-02T18:48:55.640Z,22.77
2017-06-02T18:51:50.173Z,22.73
2017-06-02T18:54:44.807Z,22.68
2017-06-02T18:57:39.174Z,22.63
2017-06-02T19:03:28.183Z,22.52
2017-06-02T19:09:17.056Z,22.43
2017-06-02T19:12:11.503Z,22.38
2017-06-02T19:15:05.947Z,22.34
2017-06-02T19:20:54.879Z,22.25
2017-06-02T19:23:49.340Z,22.21
2017-06-02T19:26:43.722Z,22.16
2017-06-02T19:29:38.073Z,22.11
2017-06-02T19:32:32.390Z,22.06
2017-06-02T19:35:26.893Z,22.02
2017-06-02T19:38:21.336Z,21.96
2017-06-02T19:41:15.790Z,21.92
2017-06-02T19:44:10.355Z,21.88
2017-06-02T19:47:04.563Z,21.83
2017-06-02T19:49:59.006Z,21.77
2017-06-02T19:52:53.437Z,21.71
2017-06-02T19:55:47.792Z,21.65
2017-06-02T19:58:42.088Z,21.58
2017-06-02T20:01:36.457Z,21.53
2017-06-02T20:04:30.795Z,21.48
2017-06-02T20:07:25.008Z,21.43
2017-06-02T20:10:19.403Z,21.38
2017-06-02T20:13:13.582Z,21.33
2017-06-02T20:16:07.860Z,21.29
2017-06-02T20:19:02.071Z,21.25
2017-06-02T20:21:56.373Z,21.19
2017-06-02T20:24:50.838Z,21.15
2017-06-02T20:27:45.121Z,21.08
2017-06-02T20:30:39.621Z,21.03
2017-06-02T20:33:34.143Z,20.99
2017-06-02T20:36:28.587Z,20.94
2017-06-02T20:39:23.110Z,20.89
2017-06-02T20:42:17.661Z,20.85
2017-06-02T20:45:12.155Z,20.78
2017-06-02T20:48:06.627Z,20.70
2017-06-02T20:51:00.905Z,20.62
2017-06-02T20:53:55.329Z,20.55
2017-06-02T20:56:49.818Z,20.47
2017-06-02T20:59:44.178Z,20.39
2017-06-02T21:02:38.711Z,20.32
2017-06-02T21:05:33.196Z,20.24
2017-06-02T21:08:27.690Z,20.17
2017-06-02T21:11:22.307Z,20.09
2017-06-02T21:14:16.646Z,20.01
2017-06-02T21:17:11.073Z,19.91
2017-06-02T21:20:05.558Z,19.81
2017-06-02T21:23:00.072Z,19.71
2017-06-02T21:25:54.566Z,19.64
2017-06-02T21:28:48.932Z,19.58
2017-06-02T21:31:43.337Z,19.52
2017-06-02T21:34:37.771Z,19.45
2017-06-02T21:37:32.088Z,19.38
2017-06-02T21:40:26.453Z,19.31
2017-06-02T21:43:20.889Z,19.25
2017-06-02T21:46:15.277Z,19.20
2017-06-02T21:49:09.669Z,19.14
2017-06-02T21:52:04.067Z,19.07
2017-06-02T21:54:58.227Z,19.01
2017-06-02T21:57:52.494Z,18.95
2017-06-02T22:03:36.332Z,18.91
2017-06-02T22:07:04.979Z,19.00
2017-06-02T22:12:28.175Z,19.03
2017-06-02T22:15:11.394Z,19.08
2017-06-02T22:18:05.050Z,19.06
2017-06-02T22:23:25.964Z,18.95
2017-06-02T22:28:25.020Z,18.97
2017-06-02T22:31:30.880Z,18.98
2017-06-02T22:34:51.592Z,18.91
2017-06-02T22:37:48.681Z,18.84
2017-06-02T22:40:37.545Z,18.76
2017-06-02T22:43:31.593Z,18.66
2017-06-02T22:46:25.954Z,18.56
2017-06-02T22:49:20.060Z,18.46
2017-06-02T22:52:14.262Z,18.37
2017-06-02T22:55:08.615Z,18.28
2017-06-02T22:58:02.685Z,18.18
2017-06-02T23:00:56.853Z,18.11
2017-06-02T23:03:51.038Z,18.05
2017-06-02T23:06:45.282Z,17.99
2017-06-02T23:09:39.858Z,17.95
2017-06-02T23:12:34.292Z,17.91
2017-06-02T23:15:28.787Z,17.87
2017-06-02T23:18:23.121Z,17.83
2017-06-02T23:21:17.474Z,17.78
2017-06-02T23:24:11.871Z,17.73
2017-06-02T23:27:06.348Z,17.68
2017-06-02T23:30:00.840Z,17.64
2017-06-02T23:32:55.307Z,17.60
2017-06-02T23:35:49.706Z,17.55
2017-06-02T23:38:44.181Z,17.49
2017-06-02T23:41:38.561Z,17.44
2017-06-02T23:44:32.982Z,17.39
2017-06-02T23:49:20.456Z,17.35
2017-06-02T23:52:04.343Z,17.43
2017-06-02T23:54:58.405Z,17.44
2017-06-02T23:57:52.622Z,17.41
